Time;durP1;ratioP1;P1;durP2;ratioP2;P2;SDS_P1;SDS_P2;PMS_P1;PMS_P2;Temp;Humidity;BMP_temperature;BMP_pressure;BME280_temperature;BME280_humidity;BME280_pressure;Samples;Min_cycle;Max_cycle;Signal;HPM_P1;HPM_P2
2022/09/11 00:01:54;;;;;;;9.70;6.50;;;;;;;14.05;100.00;97034.73;109991;1247;59691;-65
2022/09/11 00:04:25;;;;;;;9.10;5.70;;;;;;;14.06;100.00;97027.88;110039;1247;71562;-65
2022/09/11 00:06:54;;;;;;;11.30;7.20;;;;;;;14.04;100.00;97026.07;109850;1247;69549;-64
2022/09/11 00:09:24;;;;;;;9.70;6.20;;;;;;;14.01;100.00;97021.27;110027;1248;69313;-65
2022/09/11 00:11:53;;;;;;;;;;;;;;;14.00;100.00;97017.17;110059;1247;59725;-65
2022/09/11 00:14:27;;;;;;;9.00;5.40;;;;;;;13.98;100.00;97015.73;110056;1247;59704;-65
2022/09/11 00:16:56;;;;;;;8.90;6.30;;;;;;;13.97;100.00;97017.83;110042;1247;70845;-66
2022/09/11 00:19:27;;;;;;;;;;;;;;;13.95;100.00;97017.08;110087;1247;69296;-66
2022/09/11 00:21:56;;;;;;;7.40;5.10;;;;;;;13.95;100.00;97023.20;110060;1247;68728;-65
2022/09/11 00:24:26;;;;;;;7.50;4.80;;;;;;;13.95;100.00;97024.30;110075;1247;59752;-66
2022/09/11 00:26:57;;;;;;;7.00;5.00;;;;;;;13.93;100.00;97029.36;110059;1247;59736;-66
2022/09/11 00:29:28;;;;;;;6.20;5.20;;;;;;;13.91;100.00;97032.36;108328;1247;2274086;-66
2022/09/11 00:31:59;;;;;;;12.10;8.60;;;;;;;13.87;100.00;97030.64;110083;1247;69402;-65
2022/09/11 00:34:29;;;;;;;11.90;8.90;;;;;;;13.81;100.00;97028.26;110067;1247;69412;-65
2022/09/11 00:37:00;;;;;;;11.40;7.50;;;;;;;13.72;100.00;97021.07;110019;1247;59698;-65
2022/09/11 00:39:31;;;;;;;10.90;7.60;;;;;;;13.66;100.00;97018.48;110119;1247;59717;-65
2022/09/11 00:42:01;;;;;;;11.00;6.40;;;;;;;13.63;100.00;97023.36;109755;1248;70783;-65
2022/09/11 00:44:31;;;;;;;9.10;6.50;;;;;;;13.63;100.00;97026.17;110019;1247;69512;-65
2022/09/11 00:47:08;;;;;;;7.00;5.10;;;;;;;13.62;100.00;97022.92;110057;1247;68658;-65
2022/09/11 00:49:45;;;;;;;8.00;5.50;;;;;;;13.63;100.00;97018.84;110040;1247;59698;-65
2022/09/11 00:52:55;;;;;;;8.70;5.80;;;;;;;13.64;100.00;97024.71;110100;1247;59635;-66
2022/09/11 00:55:31;;;;;;;7.90;5.10;;;;;;;13.64;100.00;97022.58;109811;1247;71586;-65
2022/09/11 00:58:11;;;;;;;8.90;4.80;;;;;;;13.63;100.00;97023.20;110049;1247;68642;-65
2022/09/11 01:00:45;;;;;;;7.00;5.70;;;;;;;13.61;100.00;97021.77;110041;1247;68848;-65
2022/09/11 01:03:15;;;;;;;10.30;6.60;;;;;;;13.59;100.00;97021.59;110073;1247;59668;-65
2022/09/11 01:05:47;;;;;;;8.70;5.40;;;;;;;13.56;100.00;97017.69;109997;1247;59723;-66
2022/09/11 01:08:16;;;;;;;7.60;5.40;;;;;;;13.54;100.00;97019.46;110042;1247;71355;-65
2022/09/11 01:11:04;;;;;;;8.20;5.00;;;;;;;13.51;100.00;97016.77;110080;1247;68621;-65
2022/09/11 01:14:14;;;;;;;7.80;5.00;;;;;;;13.48;100.00;97014.70;110058;1247;69305;-65
2022/09/11 01:17:00;;;;;;;8.10;5.60;;;;;;;13.47;100.00;97021.35;109771;1247;59718;-65
2022/09/11 01:20:03;;;;;;;6.40;4.10;;;;;;;13.46;100.00;97022.09;110097;1247;59709;-65
2022/09/11 01:22:44;;;;;;;7.10;4.60;;;;;;;13.45;100.00;97024.83;110044;1247;70780;-66
2022/09/11 01:25:51;;;;;;;6.70;4.40;;;;;;;13.46;100.00;97032.98;110103;1247;68762;-66
2022/09/11 01:28:37;;;;;;;7.20;4.70;;;;;;;13.48;100.00;97031.39;110093;1247;69324;-66
2022/09/11 01:31:16;;;;;;;9.70;5.20;;;;;;;13.47;100.00;97035.00;110051;1247;59742;-65
2022/09/11 01:33:56;;;;;;;7.10;4.90;;;;;;;13.48;100.00;97032.79;110024;1247;59683;-65
2022/09/11 01:36:43;;;;;;;6.30;4.40;;;;;;;13.49;100.00;97031.95;110123;1247;70787;-64
2022/09/11 01:39:19;;;;;;;7.00;4.80;;;;;;;13.52;100.00;97031.58;110040;1246;69302;-64
2022/09/11 01:42:20;;;;;;;10.20;6.70;;;;;;;13.55;100.00;97024.48;109990;1247;69420;-63
2022/09/11 01:44:56;;;;;;;11.80;8.00;;;;;;;13.56;100.00;97022.98;110095;1247;59630;-67
2022/09/11 01:47:28;;;;;;;10.10;7.00;;;;;;;13.58;100.00;97017.86;110001;1247;59758;-67
2022/09/11 01:50:04;;;;;;;7.60;5.50;;;;;;;13.59;100.00;97023.77;110026;1247;70650;-67
2022/09/11 01:52:50;;;;;;;11.30;7.50;;;;;;;13.60;100.00;97031.86;110071;1247;68879;-66
2022/09/11 01:55:29;;;;;;;11.20;7.90;;;;;;;13.61;100.00;97034.02;110063;1247;68643;-67
2022/09/11 01:58:05;;;;;;;9.70;6.60;;;;;;;13.60;100.00;97030.85;110063;1247;59763;-67
2022/09/11 02:00:39;;;;;;;8.40;6.20;;;;;;;13.59;100.00;97023.52;110049;1247;59688;-66
2022/09/11 02:03:17;;;;;;;9.40;6.70;;;;;;;13.60;100.00;97026.79;110018;1247;70714;-67
2022/09/11 02:06:02;;;;;;;8.10;5.90;;;;;;;13.58;100.00;97026.80;110026;1247;68721;-65
2022/09/11 02:08:48;;;;;;;7.80;5.30;;;;;;;13.58;100.00;97032.93;110053;1247;69968;-66
2022/09/11 02:11:23;;;;;;;8.90;5.80;;;;;;;13.59;100.00;97025.17;110006;1247;60084;-65
2022/09/11 02:14:09;;;;;;;8.80;6.40;;;;;;;13.58;100.00;97018.06;110102;1247;59672;-65
2022/09/11 02:16:54;;;;;;;7.70;4.70;;;;;;;13.58;100.00;97018.06;110065;1247;71515;-66
2022/09/11 02:19:27;;;;;;;6.60;4.90;;;;;;;13.58;100.00;97017.16;109785;1247;69361;-67
2022/09/11 02:21:58;;;;;;;12.20;6.30;;;;;;;13.57;100.00;97007.95;110051;1247;68375;-68
2022/09/11 02:24:29;;;;;;;9.10;6.80;;;;;;;13.55;100.00;96999.94;109999;1247;59663;-66
2022/09/11 02:27:09;;;;;;;10.60;7.60;;;;;;;13.52;100.00;96996.55;109693;1248;59763;-65
2022/09/11 02:29:41;;;;;;;12.50;8.20;;;;;;;13.49;100.00;96993.09;109987;1247;71499;-65
2022/09/11 02:32:13;;;;;;;60.10;9.20;;;;;;;13.48;100.00;96992.34;110025;1247;69400;-65
2022/09/11 02:34:47;;;;;;;57.60;9.30;;;;;;;13.42;100.00;96990.45;109744;1250;69222;-66
2022/09/11 02:38:03;;;;;;;8.80;5.90;;;;;;;13.38;100.00;96982.38;109828;1247;59783;-66
2022/09/11 02:40:57;;;;;;;8.50;5.50;;;;;;;13.35;100.00;96981.44;109277;1256;60123;-68
2022/09/11 02:43:49;;;;;;;24.90;6.70;;;;;;;13.32;100.00;96978.40;109214;1256;71355;-68
2022/09/11 02:46:24;;;;;;;32.70;7.00;;;;;;;13.28;100.00;96969.34;110057;1247;68670;-66
2022/09/11 02:49:09;;;;;;;23.00;6.00;;;;;;;13.22;100.00;96961.41;110075;1247;68572;-67
2022/09/11 02:52:25;;;;;;;13.20;4.90;;;;;;;13.17;100.00;96961.71;109956;1250;59735;-66
2022/09/11 02:55:18;;;;;;;13.10;5.70;;;;;;;13.11;100.00;96963.82;109977;1247;59711;-67
2022/09/11 02:58:14;;;;;;;13.50;6.80;;;;;;;13.06;100.00;96959.07;109780;1247;71846;-67
2022/09/11 03:00:46;;;;;;;13.20;5.10;;;;;;;13.03;100.00;96964.23;109987;1247;69425;-66
2022/09/11 03:03:18;;;;;;;34.70;7.60;;;;;;;12.98;100.00;96967.63;109938;1248;68617;-66
2022/09/11 03:05:49;;;;;;;35.60;7.50;;;;;;;12.94;100.00;96964.99;110055;1247;59678;-65
2022/09/11 03:08:19;;;;;;;16.00;4.40;;;;;;;12.90;100.00;96966.73;110060;1247;59676;-66
2022/09/11 03:10:48;;;;;;;17.80;6.20;;;;;;;12.89;100.00;96966.87;110045;1246;70615;-68
2022/09/11 03:13:18;;;;;;;18.00;5.10;;;;;;;12.90;100.00;96968.02;110011;1249;69389;-66
2022/09/11 03:15:48;;;;;;;11.40;6.30;;;;;;;12.89;100.00;96970.53;109896;1250;68623;-65
2022/09/11 03:18:17;;;;;;;8.70;5.90;;;;;;;12.88;100.00;96973.41;109959;1248;59755;-67
2022/09/11 03:20:46;;;;;;;7.20;4.80;;;;;;;12.87;100.00;96971.79;109985;1247;59722;-65
2022/09/11 03:23:16;;;;;;;11.60;6.70;;;;;;;12.87;100.00;96976.84;110049;1248;71593;-66
2022/09/11 03:25:46;;;;;;;61.00;9.20;;;;;;;12.87;100.00;96980.65;110071;1247;69401;-67
2022/09/11 03:28:15;;;;;;;;;;;;;;;12.86;100.00;96982.87;109753;1248;69372;-67
2022/09/11 03:30:45;;;;;;;14.70;5.40;;;;;;;12.84;100.00;96982.02;110028;1247;60068;-68
2022/09/11 03:33:18;;;;;;;13.10;4.70;;;;;;;12.83;100.00;96981.22;110057;1248;59691;-66
2022/09/11 03:35:48;;;;;;;8.70;3.60;;;;;;;12.80;100.00;96982.33;109921;1248;71529;-66
2022/09/11 03:38:18;;;;;;;9.80;4.50;;;;;;;12.77;100.00;96977.02;110019;1247;69489;-66
2022/09/11 03:40:49;;;;;;;10.00;5.40;;;;;;;12.75;100.00;96977.66;109675;1250;68630;-65
2022/09/11 03:43:20;;;;;;;12.50;7.20;;;;;;;12.73;100.00;96978.52;110020;1247;59736;-66
2022/09/11 03:45:50;;;;;;;9.30;5.60;;;;;;;12.74;100.00;96980.23;109812;1250;59706;-66
2022/09/11 03:48:21;;;;;;;8.10;5.10;;;;;;;12.73;100.00;96985.04;109765;1248;71556;-66
2022/09/11 03:50:51;;;;;;;13.10;6.10;;;;;;;12.75;100.00;96991.70;109828;1249;68518;-66
2022/09/11 03:53:21;;;;;;;35.30;10.10;;;;;;;12.76;100.00;96989.30;110031;1247;68608;-65
2022/09/11 03:55:50;;;;;;;9.80;6.60;;;;;;;12.78;100.00;96989.50;110034;1247;59742;-67
2022/09/11 03:58:21;;;;;;;8.70;5.40;;;;;;;12.81;100.00;96987.56;110006;1247;59699;-66
2022/09/11 04:00:50;;;;;;;17.10;6.40;;;;;;;12.83;100.00;96988.86;110031;1247;71369;-66
2022/09/11 04:03:20;;;;;;;8.30;4.70;;;;;;;12.86;100.00;96985.87;109801;1250;69351;-66
2022/09/11 04:06:01;;;;;;;9.50;5.90;;;;;;;12.88;100.00;96984.56;109850;1250;69486;-65
2022/09/11 04:08:33;;;;;;;17.60;6.40;;;;;;;12.92;100.00;96983.94;109997;1247;59709;-65
2022/09/11 04:11:05;;;;;;;11.90;4.30;;;;;;;12.92;100.00;96976.53;110048;1247;59700;-67
2022/09/11 04:13:38;;;;;;;8.60;5.10;;;;;;;12.92;100.00;96972.99;109809;1248;70763;-65
2022/09/11 04:16:15;;;;;;;9.10;4.70;;;;;;;12.93;100.00;96974.02;110023;1247;68650;-66
2022/09/11 04:18:48;;;;;;;9.00;4.50;;;;;;;12.95;100.00;96980.16;110020;1247;69190;-65
2022/09/11 04:21:18;;;;;;;27.80;5.40;;;;;;;12.96;100.00;96983.86;109996;1247;59753;-65
2022/09/11 04:23:55;;;;;;;7.30;3.90;;;;;;;12.99;100.00;96987.10;110037;1247;59706;-65
2022/09/11 04:26:30;;;;;;;15.20;4.10;;;;;;;13.03;100.00;96986.93;110055;1247;69683;-65
2022/09/11 04:29:18;;;;;;;11.60;4.40;;;;;;;13.10;100.00;96987.22;110069;1247;68794;-66
2022/09/11 04:31:50;;;;;;;8.40;4.50;;;;;;;13.13;100.00;96988.48;110016;1248;68398;-66
2022/09/11 04:34:19;;;;;;;15.10;4.50;;;;;;;13.17;100.00;96994.94;110000;1247;59807;-65
2022/09/11 04:36:49;;;;;;;8.40;3.80;;;;;;;13.21;100.00;96995.13;110039;1248;59685;-65
2022/09/11 04:39:22;;;;;;;17.10;5.70;;;;;;;13.24;100.00;96999.70;110045;1247;71495;-66
2022/09/11 04:41:50;;;;;;;;;;;;;;;13.28;100.00;97003.64;110073;1247;69447;-67
2022/09/11 04:44:20;;;;;;;14.40;5.80;;;;;;;13.29;100.00;97006.66;110048;1247;69338;-67
2022/09/11 04:46:49;;;;;;;10.70;5.80;;;;;;;13.31;100.00;97007.73;110077;1247;59723;-65
2022/09/11 04:49:19;;;;;;;21.70;7.20;;;;;;;13.35;100.00;97002.33;110086;1247;59762;-65
2022/09/11 04:51:48;;;;;;;10.80;6.00;;;;;;;13.38;100.00;97004.13;109833;1248;70782;-66
2022/09/11 04:54:22;;;;;;;19.80;6.40;;;;;;;13.40;100.00;97000.64;110009;1247;69453;-64
2022/09/11 04:56:52;;;;;;;8.80;5.20;;;;;;;13.41;100.00;97001.41;110018;1247;68687;-65
2022/09/11 04:59:22;;;;;;;8.10;4.40;;;;;;;13.44;100.00;97010.73;110089;1247;59758;-65
2022/09/11 05:02:05;;;;;;;7.90;5.20;;;;;;;13.50;100.00;97013.88;110096;1247;59692;-65
2022/09/11 05:04:37;;;;;;;7.60;4.50;;;;;;;13.56;100.00;97013.73;110027;1247;70721;-64
2022/09/11 05:07:07;;;;;;;14.10;6.50;;;;;;;13.61;100.00;97018.30;110039;1247;68573;-65
2022/09/11 05:09:36;;;;;;;6.90;4.90;;;;;;;13.65;100.00;97021.58;110003;1247;69430;-66
2022/09/11 05:12:06;;;;;;;9.50;4.60;;;;;;;13.70;100.00;97021.20;110077;1247;59646;-66
2022/09/11 05:26:03;;;;;;;7.50;5.60;;;;;;;14.20;100.00;97022.84;106360;1286;610177;-66
2022/09/11 05:28:33;;;;;;;8.30;5.10;;;;;;;14.37;100.00;97022.27;107336;1260;1882261;-67
2022/09/11 05:31:12;;;;;;;9.20;6.60;;;;;;;14.46;100.00;97024.75;109180;1259;57703;-67
2022/09/11 05:33:46;;;;;;;9.60;7.40;;;;;;;14.50;100.00;97026.33;109152;1259;69122;-67
2022/09/11 05:36:15;;;;;;;8.80;6.10;;;;;;;14.52;100.00;97023.55;108769;1260;69455;-66
2022/09/11 05:38:44;;;;;;;7.70;6.40;;;;;;;14.51;100.00;97022.38;109167;1260;69527;-66
2022/09/11 05:41:14;;;;;;;8.80;6.20;;;;;;;14.50;100.00;97017.52;109159;1259;57712;-66
2022/09/11 05:43:43;;;;;;;9.80;7.40;;;;;;;14.53;100.00;97022.75;109140;1260;57723;-66
2022/09/11 05:46:15;;;;;;;11.70;9.00;;;;;;;14.57;100.00;97019.77;109136;1259;68374;-66
2022/09/11 05:48:45;;;;;;;9.70;8.60;;;;;;;14.63;100.00;97018.92;108988;1260;69997;-66
2022/09/11 05:51:18;;;;;;;;;;;;;;;14.69;100.00;97015.35;108988;1260;68565;-67
2022/09/11 05:53:54;;;;;;;7.70;5.80;;;;;;;14.77;100.00;97015.84;109681;1248;58222;-66
2022/09/11 05:56:25;;;;;;;8.40;6.60;;;;;;;14.89;100.00;97018.98;110007;1249;58066;-67
2022/09/11 05:58:57;;;;;;;7.30;6.00;;;;;;;15.04;100.00;97018.16;109969;1250;70221;-66
2022/09/11 06:01:32;;;;;;;7.30;6.00;;;;;;;15.29;100.00;97015.41;110048;1248;69431;-66
2022/09/11 06:04:11;;;;;;;7.00;5.30;;;;;;;15.48;99.93;97012.27;110027;1247;68613;-66
2022/09/11 06:06:42;;;;;;;8.70;5.50;;;;;;;15.62;99.99;97013.20;109813;1250;58107;-66
2022/09/11 06:09:11;;;;;;;;;;;;;;;15.73;99.69;97016.64;110090;1247;58069;-67
2022/09/11 06:11:41;;;;;;;8.60;6.10;;;;;;;15.81;96.96;97017.32;110059;1246;70054;-67
2022/09/11 06:14:12;;;;;;;6.70;4.90;;;;;;;15.88;96.49;97017.77;110098;1248;70164;-67
2022/09/11 06:16:42;;;;;;;6.80;4.90;;;;;;;15.94;96.12;97020.65;109957;1249;69485;-67
2022/09/11 06:19:12;;;;;;;6.40;5.10;;;;;;;16.02;97.29;97014.77;109659;1251;58108;-67
2022/09/11 06:21:41;;;;;;;8.00;5.90;;;;;;;16.02;96.52;97012.85;109936;1250;58138;-67
2022/09/11 06:24:18;;;;;;;7.00;5.30;;;;;;;16.02;96.13;97013.68;109741;1250;69016;-65
2022/09/11 06:26:48;;;;;;;6.50;5.00;;;;;;;16.06;96.07;97012.69;109677;1250;69464;-67
2022/09/11 06:29:18;;;;;;;6.90;5.30;;;;;;;16.05;95.24;97010.24;109593;1250;69332;-67
2022/09/11 06:31:50;;;;;;;6.90;5.70;;;;;;;16.23;95.48;97005.83;109661;1250;58085;-67
2022/09/11 06:34:22;;;;;;;6.30;5.40;;;;;;;16.45;94.60;97000.43;109740;1251;58030;-67
2022/09/11 06:36:51;;;;;;;7.90;6.40;;;;;;;16.63;94.99;96993.58;109782;1250;69515;-67
2022/09/11 06:39:25;;;;;;;5.80;4.10;;;;;;;16.73;93.83;96996.22;109637;1251;69545;-67
2022/09/11 06:41:54;;;;;;;6.70;5.30;;;;;;;16.91;94.11;96999.54;109775;1250;68644;-67
2022/09/11 06:44:28;;;;;;;7.30;5.70;;;;;;;17.04;92.31;96999.38;109774;1250;58096;-67
2022/09/11 06:46:59;;;;;;;6.40;5.30;;;;;;;17.06;90.87;96994.73;109896;1250;58025;-66
2022/09/11 06:49:28;;;;;;;10.00;6.40;;;;;;;17.18;90.98;96993.32;109943;1250;69123;-66
2022/09/11 06:52:34;;;;;;;6.30;4.40;;;;;;;17.17;90.51;96992.00;109807;1250;68688;-66
2022/09/11 06:55:13;;;;;;;6.50;4.60;;;;;;;17.12;89.51;96994.14;109911;1250;69348;-65
2022/09/11 06:57:48;;;;;;;7.30;6.60;;;;;;;17.12;90.02;96995.50;109887;1248;58142;-65
2022/09/11 07:00:21;;;;;;;7.10;5.00;;;;;;;17.07;89.57;96991.29;109762;1250;58084;-65
2022/09/11 07:02:55;;;;;;;6.60;5.60;;;;;;;17.21;90.29;96993.13;109557;1251;69982;-67
2022/09/11 07:05:24;;;;;;;5.90;4.90;;;;;;;17.27;89.01;96991.65;109811;1250;69561;-66
2022/09/11 07:07:55;;;;;;;5.90;5.30;;;;;;;17.34;88.72;96992.19;109838;1250;69470;-67
2022/09/11 07:10:25;;;;;;;5.30;4.80;;;;;;;17.34;88.69;96994.44;109801;1250;58134;-67
2022/09/11 07:12:56;;;;;;;7.50;5.40;;;;;;;17.44;87.84;97000.00;110116;1248;58138;-65
2022/09/11 07:15:26;;;;;;;6.80;5.90;;;;;;;17.49;87.10;97000.23;109840;1249;69642;-66
2022/09/11 07:17:54;;;;;;;6.50;5.50;;;;;;;17.39;87.12;96999.52;109639;1250;68964;-66
2022/09/11 07:20:24;;;;;;;7.40;5.30;;;;;;;17.40;87.98;96999.56;109684;1250;68602;-65
2022/09/11 07:22:53;;;;;;;4.80;4.40;;;;;;;17.52;87.31;97000.75;109820;1250;58506;-65
2022/09/11 07:25:21;;;;;;;6.70;5.40;;;;;;;17.75;86.81;97000.36;109826;1250;58051;-66
2022/09/11 07:27:53;;;;;;;6.50;5.00;;;;;;;18.17;85.14;96995.66;109763;1251;69275;-66
2022/09/11 07:30:23;;;;;;;5.10;4.20;;;;;;;18.36;83.44;96992.59;109976;1249;68514;-66
2022/09/11 07:32:53;;;;;;;5.30;4.60;;;;;;;18.73;82.44;96991.22;109772;1250;69683;-67
2022/09/11 07:35:22;;;;;;;5.50;4.90;;;;;;;19.09;79.70;96992.52;109743;1249;58151;-66
2022/09/11 07:37:53;;;;;;;4.00;3.60;;;;;;;19.40;79.63;96991.14;109770;1250;58076;-67
2022/09/11 07:40:25;;;;;;;5.40;4.50;;;;;;;19.70;78.69;96992.10;109811;1249;69256;-67
2022/09/11 07:42:54;;;;;;;5.00;4.10;;;;;;;19.93;75.93;96995.10;109859;1250;69751;-67
2022/09/11 07:45:23;;;;;;;6.00;4.30;;;;;;;20.33;74.94;96990.14;109850;1250;68614;-67
2022/09/11 07:47:52;;;;;;;4.20;3.80;;;;;;;20.71;73.13;96988.24;109702;1250;58545;-67
2022/09/11 07:50:23;;;;;;;4.10;3.70;;;;;;;20.98;71.78;96989.02;109892;1250;58189;-68
2022/09/11 07:52:53;;;;;;;4.40;3.10;;;;;;;21.40;71.14;96986.20;109833;1248;69358;-67
2022/09/11 07:55:22;;;;;;;3.50;2.90;;;;;;;21.67;68.37;96984.39;109733;1250;68757;-67
2022/09/11 07:57:52;;;;;;;3.60;2.60;;;;;;;21.74;69.06;96981.17;109752;1250;69485;-67
2022/09/11 08:00:22;;;;;;;3.30;3.00;;;;;;;21.83;67.21;96985.45;109913;1249;58126;-68
2022/09/11 08:02:57;;;;;;;4.00;3.20;;;;;;;22.14;64.56;96981.57;109814;1248;58091;-68
2022/09/11 08:05:31;;;;;;;2.40;2.20;;;;;;;21.90;63.08;96977.66;109809;1249;70176;-68
2022/09/11 08:08:00;;;;;;;3.00;2.30;;;;;;;21.50;64.84;96977.73;109826;1250;68917;-67
2022/09/11 08:10:29;;;;;;;;;;;;;;;21.49;66.62;96975.27;109648;1250;69257;-68
2022/09/11 08:12:59;;;;;;;3.40;2.80;;;;;;;21.50;65.26;96978.19;109824;1249;58508;-68
2022/09/11 08:15:34;;;;;;;3.60;2.60;;;;;;;21.73;66.40;96979.08;109817;1250;58050;-68
2022/09/11 08:18:03;;;;;;;2.50;2.10;;;;;;;21.91;64.84;96976.80;109695;1249;68135;-66
2022/09/11 08:20:32;;;;;;;3.70;3.40;;;;;;;22.07;62.61;96973.73;109702;1250;68663;-67
2022/09/11 08:23:01;;;;;;;3.90;3.30;;;;;;;21.96;63.64;96972.70;109844;1249;69288;-67
2022/09/11 08:25:30;;;;;;;5.10;3.40;;;;;;;21.55;64.00;96975.74;109823;1248;58161;-67
2022/09/11 08:28:00;;;;;;;4.70;3.60;;;;;;;21.16;64.49;96981.13;109860;1248;58244;-67
2022/09/11 08:30:30;;;;;;;4.10;3.70;;;;;;;20.71;66.20;96977.75;109797;1248;69178;-67
2022/09/11 08:33:00;;;;;;;4.70;4.20;;;;;;;20.88;66.40;96977.10;109851;1249;68422;-67
2022/09/11 08:35:29;;;;;;;3.20;2.50;;;;;;;21.20;65.69;96980.73;109821;1250;69457;-67
2022/09/11 08:37:58;;;;;;;3.30;2.80;;;;;;;21.92;64.47;96977.46;109936;1250;58150;-67
2022/09/11 08:40:29;;;;;;;4.20;2.60;;;;;;;22.11;61.42;96980.14;109623;1252;58091;-67
2022/09/11 08:43:02;;;;;;;2.80;2.30;;;;;;;22.61;60.29;96978.16;109729;1250;70491;-68
2022/09/11 08:45:34;;;;;;;3.80;3.40;;;;;;;22.83;58.31;96975.48;109649;1250;68453;-65
2022/09/11 08:48:08;;;;;;;3.20;2.50;;;;;;;22.94;58.03;96974.27;109568;1251;70129;-67
2022/09/11 08:50:42;;;;;;;3.40;2.70;;;;;;;22.48;58.23;96975.93;109821;1250;58136;-67
2022/09/11 08:53:15;;;;;;;3.30;2.30;;;;;;;22.44;58.33;96972.98;109828;1250;58089;-67
2022/09/11 08:55:49;;;;;;;3.10;2.70;;;;;;;22.12;58.32;96972.42;109930;1250;69989;-67
2022/09/11 08:58:30;;;;;;;3.70;2.40;;;;;;;22.08;59.55;96973.95;109802;1248;69509;-66
2022/09/11 09:01:11;;;;;;;4.60;2.60;;;;;;;22.70;57.68;96969.42;109656;1249;69801;-67
2022/09/11 09:03:49;;;;;;;4.40;2.90;;;;;;;23.10;55.79;96973.33;109867;1250;58438;-66
2022/09/11 09:06:24;;;;;;;2.80;2.00;;;;;;;24.07;53.97;96974.79;109684;1250;58086;-67
2022/09/11 09:09:11;;;;;;;3.80;2.50;;;;;;;24.19;51.88;96970.17;109865;1250;70030;-67
2022/09/11 09:12:11;;;;;;;2.30;2.10;;;;;;;23.48;51.55;96970.70;109768;1251;68469;-67
2022/09/11 09:14:58;;;;;;;3.40;2.50;;;;;;;22.82;54.58;96968.06;109760;1250;69445;-67
2022/09/11 09:17:42;;;;;;;4.60;2.40;;;;;;;22.97;54.68;96966.27;109741;1250;58160;-67
2022/09/11 09:20:22;;;;;;;2.10;1.90;;;;;;;23.20;52.77;96972.23;110146;1250;58082;-68
2022/09/11 09:23:01;;;;;;;1.80;1.40;;;;;;;23.62;49.77;96969.44;109633;1251;69900;-68
2022/09/11 09:25:35;;;;;;;2.60;1.80;;;;;;;24.47;48.17;96960.73;109740;1250;69221;-66
2022/09/11 09:28:20;;;;;;;1.90;1.60;;;;;;;23.85;47.77;96955.83;109681;1250;68652;-66
2022/09/11 09:30:56;;;;;;;1.60;1.40;;;;;;;23.18;49.72;96952.15;109624;1251;58161;-67
2022/09/11 09:33:35;;;;;;;1.90;1.40;;;;;;;22.23;51.22;96956.98;109940;1250;58101;-68
2022/09/11 09:36:30;;;;;;;1.90;1.40;;;;;;;21.91;51.90;96951.30;109574;1251;69885;-67
2022/09/11 09:39:01;;;;;;;1.60;1.40;;;;;;;22.37;49.48;96935.80;109671;1249;69273;-67
2022/09/11 09:41:48;;;;;;;1.60;1.30;;;;;;;23.02;49.00;96928.20;109661;1250;69254;-68
2022/09/11 09:44:35;;;;;;;1.50;1.30;;;;;;;24.19;45.84;96924.41;109709;1250;58874;-66
2022/09/11 09:47:09;;;;;;;1.80;1.30;;;;;;;24.53;44.25;96927.38;109998;1247;58941;-68
2022/09/11 09:49:38;;;;;;;0.80;0.80;;;;;;;25.48;43.43;96933.11;110025;1247;70824;-67
2022/09/11 09:52:20;;;;;;;1.30;0.70;;;;;;;26.59;41.30;96925.80;109826;1248;69686;-67
2022/09/11 09:55:01;;;;;;;2.40;0.80;;;;;;;27.02;38.20;96925.14;109684;1250;69344;-69
2022/09/11 09:57:33;;;;;;;1.80;0.80;;;;;;;27.04;38.78;96930.83;109724;1250;58950;-67
2022/09/11 10:00:13;;;;;;;0.70;0.70;;;;;;;27.15;37.46;96932.23;110031;1247;58952;-67
2022/09/11 10:02:52;;;;;;;1.70;0.90;;;;;;;27.62;37.57;96937.96;110061;1247;70543;-69
2022/09/11 10:05:30;;;;;;;0.80;0.70;;;;;;;28.42;36.25;96937.26;110028;1247;68649;-68
2022/09/11 10:08:02;;;;;;;1.10;0.70;;;;;;;28.70;35.72;96933.59;109960;1247;68660;-69
2022/09/11 10:10:35;;;;;;;1.30;0.80;;;;;;;28.71;33.72;96937.04;110001;1247;58887;-69
2022/09/11 10:13:19;;;;;;;0.90;0.60;;;;;;;28.40;34.53;96941.06;110155;1247;59050;-67
2022/09/11 10:15:49;;;;;;;0.70;0.70;;;;;;;28.92;35.58;96935.85;109909;1247;69963;-67
2022/09/11 10:18:21;;;;;;;0.60;0.50;;;;;;;29.54;33.86;96931.48;110065;1247;69409;-68
2022/09/11 10:20:50;;;;;;;1.10;0.70;;;;;;;30.01;32.81;96927.11;110031;1247;70067;-67
2022/09/11 10:23:24;;;;;;;1.60;0.60;;;;;;;29.59;31.03;96933.73;109789;1250;58912;-68
2022/09/11 10:25:53;;;;;;;1.00;0.70;;;;;;;28.52;30.90;96929.62;110089;1246;58841;-68
2022/09/11 10:28:32;;;;;;;0.70;0.50;;;;;;;27.74;32.18;96930.34;110083;1247;70827;-68
2022/09/11 10:31:03;;;;;;;0.30;0.30;;;;;;;28.48;31.64;96926.67;110032;1247;69033;-68
2022/09/11 10:33:37;;;;;;;1.00;0.80;;;;;;;28.00;32.63;96931.23;110072;1247;69440;-68
2022/09/11 10:36:08;;;;;;;1.50;0.70;;;;;;;28.59;31.86;96924.23;110066;1247;58888;-67
2022/09/11 10:38:47;;;;;;;1.60;0.60;;;;;;;28.10;33.21;96921.91;110032;1247;58852;-68
2022/09/11 10:41:20;;;;;;;0.40;0.40;;;;;;;27.82;30.31;96921.55;110053;1247;70743;-69
2022/09/11 10:43:59;;;;;;;0.80;0.40;;;;;;;27.59;29.96;96919.64;110041;1247;69511;-69
2022/09/11 10:46:41;;;;;;;0.60;0.30;;;;;;;27.40;30.68;96921.45;110042;1247;68675;-68
2022/09/11 10:49:10;;;;;;;1.00;0.60;;;;;;;27.13;30.88;96916.38;110000;1247;58888;-68
2022/09/11 10:51:40;;;;;;;1.40;0.60;;;;;;;28.32;31.68;96917.73;109772;1247;58952;-67
2022/09/11 10:54:52;;;;;;;1.60;0.50;;;;;;;29.09;30.55;96915.27;110007;1247;70044;-68
2022/09/11 10:57:20;;;;;;;1.20;0.40;;;;;;;30.06;30.46;96918.14;109989;1247;69515;-68
2022/09/11 11:00:14;;;;;;;1.20;0.40;;;;;;;30.15;29.30;96910.52;109991;1247;67742;-68
2022/09/11 11:02:46;;;;;;;1.00;0.40;;;;;;;30.31;30.21;96909.39;109808;1247;58906;-67
2022/09/11 11:05:33;;;;;;;0.40;0.40;;;;;;;30.47;29.41;96907.27;110107;1247;58883;-69
2022/09/11 11:08:15;;;;;;;0.80;0.40;;;;;;;30.98;29.04;96907.02;110096;1247;70235;-69
2022/09/11 11:10:54;;;;;;;0.90;0.80;;;;;;;31.52;29.42;96910.02;110069;1247;69426;-67
2022/09/11 11:13:54;;;;;;;2.00;1.00;;;;;;;31.63;30.70;96910.23;110057;1247;68232;-67
2022/09/11 11:17:01;;;;;;;1.90;1.40;;;;;;;31.63;30.70;96907.17;109794;1248;58977;-68
2022/09/11 11:19:46;;;;;;;1.30;1.10;;;;;;;30.25;32.00;96908.16;109715;1250;58894;-68
2022/09/11 11:22:35;;;;;;;1.30;1.20;;;;;;;29.23;33.99;96904.30;109799;1247;70614;-68
2022/09/11 11:25:58;;;;;;;3.50;1.20;;;;;;;27.97;36.72;96905.16;110032;1247;68643;-68
2022/09/11 11:28:59;;;;;;;1.70;1.20;;;;;;;27.08;38.46;96903.77;109232;1256;70124;-68
2022/09/11 11:31:37;;;;;;;1.20;0.90;;;;;;;27.57;37.53;96905.02;109183;1256;59408;-68
2022/09/11 11:34:14;;;;;;;1.90;0.80;;;;;;;28.28;36.45;96902.53;109843;1247;58878;-67
2022/09/11 11:37:13;;;;;;;1.30;0.90;;;;;;;28.96;35.78;96897.41;109990;1247;71018;-67
2022/09/11 11:40:11;;;;;;;1.70;0.80;;;;;;;29.77;34.22;96895.11;110044;1247;68758;-67
2022/09/11 11:42:55;;;;;;;0.80;0.50;;;;;;;30.67;32.66;96893.99;109301;1250;69739;-67
2022/09/11 11:45:36;;;;;;;1.80;1.00;;;;;;;31.19;31.26;96891.82;109976;1247;58958;-67
2022/09/11 11:48:32;;;;;;;1.50;0.90;;;;;;;31.02;31.13;96882.67;110002;1247;58876;-68
2022/09/11 11:51:10;;;;;;;0.90;0.70;;;;;;;29.99;32.04;96879.86;109904;1247;70776;-67
2022/09/11 11:53:57;;;;;;;1.00;0.80;;;;;;;29.25;32.93;96884.40;110033;1247;67988;-66
2022/09/11 11:56:48;;;;;;;1.10;0.90;;;;;;;28.89;34.26;96883.79;109964;1247;69303;-68
2022/09/11 11:59:41;;;;;;;1.20;1.00;;;;;;;28.34;35.32;96883.57;109979;1247;58932;-67
2022/09/11 12:02:09;;;;;;;2.00;0.90;;;;;;;27.52;35.50;96885.15;110003;1247;58923;-67
2022/09/11 12:04:51;;;;;;;0.70;0.70;;;;;;;26.79;35.84;96887.71;110016;1247;70544;-67
2022/09/11 12:07:25;;;;;;;1.20;0.70;;;;;;;26.11;37.45;96885.64;109703;1250;69601;-67
2022/09/11 12:09:56;;;;;;;0.90;0.60;;;;;;;25.56;38.88;96887.20;110041;1246;68935;-67
2022/09/11 12:12:28;;;;;;;1.30;0.90;;;;;;;25.05;39.95;96880.95;110023;1247;58940;-66
2022/09/11 12:15:16;;;;;;;1.10;0.80;;;;;;;24.58;41.03;96879.17;110008;1247;58872;-67